createdAt,value
2022-08-05T00:01:27.635Z,101529.38
2022-08-05T00:04:31.948Z,101525.63
2022-08-05T00:08:00.351Z,101529.09
2022-08-05T00:11:02.742Z,101519.00
2022-08-05T00:14:13.079Z,101507.16
2022-08-05T00:17:21.142Z,101512.78
2022-08-05T00:20:29.109Z,101497.94
2022-08-05T00:23:46.470Z,101498.34
2022-08-05T00:26:56.741Z,101480.91
2022-08-05T00:30:03.702Z,101474.88
2022-08-05T00:33:07.464Z,101473.34
2022-08-05T00:37:10.880Z,101454.06
2022-08-05T00:39:58.340Z,101438.25
2022-08-05T00:43:07.444Z,101438.22
2022-08-05T00:46:13.002Z,101461.84
2022-08-05T00:49:20.128Z,101476.00
2022-08-05T00:52:28.754Z,101475.06
2022-08-05T00:55:42.102Z,101451.38
2022-08-05T00:58:46.535Z,101438.59
2022-08-05T01:01:52.429Z,101414.72
2022-08-05T01:04:56.115Z,101412.41
2022-08-05T01:08:41.839Z,101419.91
2022-08-05T01:11:33.442Z,101414.47
2022-08-05T01:14:53.256Z,101420.63
2022-08-05T01:18:06.254Z,101421.34
2022-08-05T01:21:37.993Z,101416.28
2022-08-05T01:25:04.488Z,101412.13
2022-08-05T01:28:27.570Z,101342.69
2022-08-05T01:31:44.668Z,101272.00
2022-08-05T01:34:55.752Z,101269.94
2022-08-05T01:38:04.056Z,101292.03
2022-08-05T01:41:09.204Z,101330.97
2022-08-05T01:44:18.246Z,101352.72
2022-08-05T01:47:38.633Z,101341.03
2022-08-05T01:50:51.069Z,101368.69
2022-08-05T01:54:00.270Z,101380.84
2022-08-05T01:58:10.214Z,101383.81
2022-08-05T02:00:38.055Z,101377.25
2022-08-05T02:03:48.728Z,101388.78
2022-08-05T02:06:54.255Z,101395.03
2022-08-05T02:10:00.508Z,101404.13
2022-08-05T02:13:16.540Z,101416.94
2022-08-05T02:16:29.495Z,101413.50
2022-08-05T02:19:46.947Z,101430.91
2022-08-05T02:22:59.775Z,101436.56
2022-08-05T02:26:07.520Z,101436.16
2022-08-05T02:29:21.694Z,101446.88
2022-08-05T02:32:35.434Z,101445.13
2022-08-05T02:35:47.350Z,101456.84
2022-08-05T02:39:03.084Z,101446.13
2022-08-05T02:42:09.458Z,101437.19
2022-08-05T02:45:51.484Z,101422.84
2022-08-05T02:48:59.458Z,101419.44
2022-08-05T02:52:06.623Z,101417.16
2022-08-05T02:55:12.424Z,101400.41
2022-08-05T02:58:20.524Z,101394.13
2022-08-05T03:01:27.465Z,101401.63
2022-08-05T03:04:34.748Z,101391.97
2022-08-05T03:08:06.648Z,101393.78
2022-08-05T03:11:54.694Z,101414.22
2022-08-05T03:14:29.632Z,101409.16
2022-08-05T03:17:34.451Z,101405.84
2022-08-05T03:20:48.862Z,101414.28
2022-08-05T03:23:53.883Z,101420.03
2022-08-05T03:26:58.135Z,101426.25
2022-08-05T03:30:08.620Z,101432.44
2022-08-05T03:33:13.065Z,101421.16
2022-08-05T03:36:18.169Z,101427.31
2022-08-05T03:39:47.183Z,101420.88
2022-08-05T03:42:58.147Z,101409.72
2022-08-05T03:46:01.937Z,101402.00
2022-08-05T03:49:05.624Z,101402.91
2022-08-05T03:52:48.516Z,101408.13
2022-08-05T03:56:10.186Z,101394.81
2022-08-05T03:59:22.470Z,101399.94
2022-08-05T04:02:37.381Z,101430.09
2022-08-05T04:05:46.065Z,101423.66
2022-08-05T04:08:54.571Z,101427.25
2022-08-05T04:11:58.373Z,101460.13
2022-08-05T04:15:02.226Z,101456.56
2022-08-05T04:18:09.841Z,101459.03
2022-08-05T04:21:19.901Z,101468.72
2022-08-05T04:24:43.971Z,101461.63
2022-08-05T04:27:58.064Z,101463.13
2022-08-05T04:31:05.140Z,101459.41
2022-08-05T04:34:31.830Z,101464.34
2022-08-05T04:38:02.880Z,101469.41
2022-08-05T04:41:03.443Z,101470.16
2022-08-05T04:44:08.926Z,101469.31
2022-08-05T04:47:17.004Z,101472.53
2022-08-05T04:50:34.458Z,101465.28
2022-08-05T04:53:41.444Z,101465.41
2022-08-05T04:56:48.066Z,101463.72
2022-08-05T04:59:51.712Z,101464.47
2022-08-05T05:02:59.126Z,101453.88
2022-08-05T05:06:39.187Z,101446.97
2022-08-05T05:09:35.216Z,101431.78
2022-08-05T05:12:42.712Z,101446.59
2022-08-05T05:15:57.577Z,101477.03
2022-08-05T05:19:18.986Z,101483.09
2022-08-05T05:22:26.317Z,101480.94
2022-08-05T05:25:33.028Z,101479.00
2022-08-05T05:28:46.055Z,101483.44
2022-08-05T05:31:50.287Z,101476.28
2022-08-05T05:34:55.064Z,101476.69
2022-08-05T05:38:02.201Z,101484.09
2022-08-05T05:41:07.645Z,101466.72
2022-08-05T05:44:35.921Z,101444.78
2022-08-05T05:48:05.706Z,101441.50
2022-08-05T05:51:15.097Z,101441.06
2022-08-05T05:54:49.863Z,101467.34
2022-08-05T05:57:52.699Z,101480.81
2022-08-05T06:01:02.489Z,101487.28
2022-08-05T06:04:17.289Z,101472.47
2022-08-05T06:07:22.432Z,101451.91
2022-08-05T06:10:29.369Z,101468.81
2022-08-05T06:13:40.706Z,101469.41
2022-08-05T06:16:57.015Z,101465.38
2022-08-05T06:20:00.971Z,101479.63
2022-08-05T06:23:04.614Z,101481.09
2022-08-05T06:26:13.879Z,101480.19
2022-08-05T06:29:52.062Z,101476.84
2022-08-05T06:32:51.284Z,101477.63
2022-08-05T06:36:07.538Z,101487.13
2022-08-05T06:39:13.992Z,101501.00
2022-08-05T06:42:17.968Z,101509.72
2022-08-05T06:45:45.055Z,101513.94
2022-08-05T06:48:56.757Z,101506.53
2022-08-05T06:52:03.083Z,101501.78
2022-08-05T06:55:07.677Z,101500.72
2022-08-05T06:58:30.229Z,101483.78
2022-08-05T07:01:35.198Z,101498.50
2022-08-05T07:04:40.210Z,101504.44
2022-08-05T07:07:49.010Z,101513.31
2022-08-05T07:10:53.902Z,101507.78
2022-08-05T07:14:28.981Z,101511.63
2022-08-05T07:18:00.618Z,101518.78
2022-08-05T07:21:05.534Z,101509.47
2022-08-05T07:24:11.208Z,101518.16
2022-08-05T07:27:15.387Z,101528.44
2022-08-05T07:30:25.373Z,101534.38
2022-08-05T07:33:36.439Z,101538.66
2022-08-05T07:36:42.420Z,101540.50
2022-08-05T07:40:26.480Z,101541.00
2022-08-05T07:43:20.092Z,101552.63
2022-08-05T07:46:26.694Z,101547.06
2022-08-05T07:49:30.483Z,101545.97
2022-08-05T07:52:41.690Z,101551.78
2022-08-05T07:56:05.795Z,101543.50
2022-08-05T07:59:11.762Z,101537.47
2022-08-05T08:02:18.825Z,101530.47
2022-08-05T08:05:22.530Z,101530.47
2022-08-05T08:08:31.542Z,101526.72
2022-08-05T08:11:47.609Z,101539.13
2022-08-05T08:15:02.191Z,101539.44
2022-08-05T08:18:14.000Z,101535.47
2022-08-05T08:21:18.482Z,101534.06
2022-08-05T08:24:23.661Z,101539.53
2022-08-05T08:27:51.291Z,101540.47
2022-08-05T08:30:55.377Z,101532.44
2022-08-05T08:33:59.038Z,101529.38
2022-08-05T08:37:05.251Z,101536.72
2022-08-05T08:40:12.763Z,101539.38
2022-08-05T08:45:20.352Z,101537.97
2022-08-05T08:46:43.012Z,101543.44
2022-08-05T08:50:06.142Z,101545.91
2022-08-05T08:53:17.979Z,101560.75
2022-08-05T08:56:27.208Z,101563.69
2022-08-05T08:59:33.628Z,101564.00
2022-08-05T09:02:38.523Z,101568.44
2022-08-05T09:06:07.582Z,101559.88
2022-08-05T09:09:07.148Z,101560.41
2022-08-05T09:12:30.231Z,101566.03
2022-08-05T09:15:37.065Z,101572.03
2022-08-05T09:18:43.778Z,101579.50
2022-08-05T09:22:30.917Z,101579.38
2022-08-05T09:25:13.999Z,101567.59
2022-08-05T09:28:31.654Z,101564.00
2022-08-05T09:32:41.865Z,101563.16
2022-08-05T09:35:02.834Z,101554.19
2022-08-05T09:38:16.422Z,101561.28
2022-08-05T09:41:21.560Z,101570.78
2022-08-05T09:44:42.622Z,101562.44
2022-08-05T09:47:55.362Z,101560.31
2022-08-05T09:51:02.787Z,101564.00
2022-08-05T09:54:09.421Z,101555.09
2022-08-05T09:57:30.461Z,101564.69
2022-08-05T10:00:42.063Z,101567.59
2022-08-05T10:04:00.236Z,101577.34
2022-08-05T10:07:19.536Z,101578.88
2022-08-05T10:10:32.450Z,101577.91
2022-08-05T10:13:47.883Z,101580.84
2022-08-05T10:16:56.346Z,101580.22
2022-08-05T10:20:03.677Z,101583.66
2022-08-05T10:23:34.339Z,101576.25
2022-08-05T10:26:48.955Z,101571.63
2022-08-05T10:30:06.314Z,101587.56
2022-08-05T10:33:24.219Z,101587.41
2022-08-05T10:36:32.678Z,101592.41
2022-08-05T10:40:04.134Z,101593.72
2022-08-05T10:43:23.850Z,101601.44
2022-08-05T10:46:50.696Z,101601.59
2022-08-05T10:50:32.455Z,101608.94
2022-08-05T10:53:45.889Z,101598.94
2022-08-05T10:56:53.142Z,101599.06
2022-08-05T11:00:13.435Z,101620.69
2022-08-05T11:03:25.144Z,101634.06
2022-08-05T11:06:33.188Z,101635.09
2022-08-05T11:09:46.893Z,101640.88
2022-08-05T11:12:54.926Z,101647.19
2022-08-05T11:16:33.952Z,101642.47
2022-08-05T11:20:10.643Z,101638.41
2022-08-05T11:24:05.020Z,101635.59
2022-08-05T11:27:50.785Z,101646.72
2022-08-05T11:31:58.293Z,101644.53
2022-08-05T11:34:54.444Z,101644.00
2022-08-05T11:38:26.641Z,101650.06
2022-08-05T11:41:57.988Z,101654.63
2022-08-05T11:44:55.551Z,101639.69
2022-08-05T11:48:00.001Z,101638.50
2022-08-05T11:51:05.527Z,101652.22
2022-08-05T11:54:10.036Z,101650.50
2022-08-05T11:57:24.926Z,101663.34
2022-08-05T12:00:32.370Z,101657.81
2022-08-05T12:03:56.079Z,101661.56
2022-08-05T12:07:02.113Z,101675.94
2022-08-05T12:10:11.567Z,101673.19
2022-08-05T12:13:49.111Z,101674.28
2022-08-05T12:16:45.386Z,101677.69
2022-08-05T12:20:27.201Z,101678.34
2022-08-05T12:23:16.272Z,101688.63
2022-08-05T12:26:21.814Z,101682.81
2022-08-05T12:29:38.608Z,101675.06
2022-08-05T12:32:50.422Z,101687.00
2022-08-05T12:35:54.892Z,101674.41
2022-08-05T12:39:00.439Z,101686.59
2022-08-05T12:42:14.282Z,101693.94
2022-08-05T12:45:53.370Z,101691.75
2022-08-05T12:49:05.910Z,101695.63
2022-08-05T12:52:23.856Z,101691.09
2022-08-05T12:55:35.275Z,101691.28
2022-08-05T12:58:52.127Z,101688.25
2022-08-05T13:02:07.583Z,101675.22
2022-08-05T13:05:14.573Z,101687.75
2022-08-05T13:08:19.829Z,101681.56
2022-08-05T13:12:01.895Z,101679.75
2022-08-05T13:15:06.281Z,101679.75
2022-08-05T13:18:12.509Z,101681.50
2022-08-05T13:21:23.851Z,101684.16
2022-08-05T13:24:51.256Z,101683.22
2022-08-05T13:27:57.478Z,101674.38
2022-08-05T13:31:10.985Z,101682.97
2022-08-05T13:34:23.604Z,101680.50
2022-08-05T13:37:34.874Z,101677.31
2022-08-05T13:40:48.037Z,101668.16
2022-08-05T13:43:55.477Z,101667.47
2022-08-05T13:47:04.971Z,101658.16
2022-08-05T13:50:16.840Z,101675.00
2022-08-05T13:53:20.736Z,101665.88
2022-08-05T13:56:24.464Z,101685.22
2022-08-05T13:59:30.657Z,101714.78
2022-08-05T14:02:35.348Z,101709.72
2022-08-05T14:06:24.406Z,101728.16
2022-08-05T14:09:08.627Z,101734.44
2022-08-05T14:12:18.065Z,101727.59
2022-08-05T14:16:05.681Z,101735.63
2022-08-05T14:18:54.380Z,101721.56
2022-08-05T14:22:09.258Z,101726.00
2022-08-05T14:25:21.943Z,101738.31
2022-08-05T14:28:27.296Z,101738.75
2022-08-05T14:31:54.519Z,101735.75
2022-08-05T14:34:56.864Z,101736.28
2022-08-05T14:38:02.642Z,101745.13
2022-08-05T14:41:08.251Z,101750.84
2022-08-05T14:44:20.312Z,101761.78
2022-08-05T14:48:04.204Z,101762.81
2022-08-05T14:50:48.965Z,101779.56
2022-08-05T14:54:06.590Z,101776.34
2022-08-05T14:57:18.419Z,101787.22
2022-08-05T15:00:22.446Z,101785.91
2022-08-05T15:03:39.232Z,101788.84
2022-08-05T15:06:49.062Z,101804.25
2022-08-05T15:09:54.896Z,101788.66
2022-08-05T15:13:04.278Z,101792.09
2022-08-05T15:16:13.112Z,101804.13
2022-08-05T15:19:23.377Z,101808.69
2022-08-05T15:22:28.102Z,101811.41
2022-08-05T15:25:41.070Z,101829.19
2022-08-05T15:28:56.769Z,101817.47
2022-08-05T15:32:03.092Z,101818.13
2022-08-05T15:35:10.723Z,101819.19
2022-08-05T15:38:35.635Z,101827.00
2022-08-05T15:41:57.570Z,101840.88
2022-08-05T15:45:02.783Z,101829.81
2022-08-05T15:48:07.139Z,101842.28
2022-08-05T15:51:10.839Z,101843.31
2022-08-05T15:54:15.234Z,101844.81
2022-08-05T15:57:21.316Z,101843.47
2022-08-05T16:00:42.898Z,101847.81
2022-08-05T16:03:50.883Z,101849.94
2022-08-05T16:06:55.752Z,101856.78
2022-08-05T16:09:59.618Z,101858.28
2022-08-05T16:13:05.497Z,101866.97
2022-08-05T16:16:10.620Z,101861.66
2022-08-05T16:19:18.986Z,101866.88
2022-08-05T16:22:39.412Z,101860.63
2022-08-05T16:25:43.530Z,101870.94
2022-08-05T16:28:50.031Z,101873.00
2022-08-05T16:31:57.818Z,101885.88
2022-08-05T16:35:02.564Z,101892.13
2022-08-05T16:38:18.623Z,101901.66
2022-08-05T16:42:12.783Z,101908.50
2022-08-05T16:44:57.118Z,101912.59
2022-08-05T16:48:03.007Z,101922.25
2022-08-05T16:51:09.185Z,101915.72
2022-08-05T16:54:16.241Z,101927.38
2022-08-05T16:57:42.936Z,101933.00
2022-08-05T17:00:49.859Z,101933.84
2022-08-05T17:03:53.634Z,101939.91
2022-08-05T17:07:01.285Z,101940.44
2022-08-05T17:10:06.248Z,101941.41
2022-08-05T17:13:16.967Z,101940.72
2022-08-05T17:16:33.005Z,101948.19
2022-08-05T17:19:37.718Z,101951.69
2022-08-05T17:22:41.614Z,101953.19
2022-08-05T17:25:45.579Z,101957.19
2022-08-05T17:28:51.036Z,101963.66
2022-08-05T17:31:58.206Z,101969.13
2022-08-05T17:35:03.211Z,101972.53
2022-08-05T17:38:09.184Z,101982.28
2022-08-05T17:42:18.392Z,101983.63
2022-08-05T17:44:36.676Z,101989.31
2022-08-05T17:47:41.799Z,101996.34
2022-08-05T17:50:45.536Z,101993.88
2022-08-05T17:53:50.918Z,101992.72
2022-08-05T17:56:58.795Z,101993.72
2022-08-05T18:00:05.188Z,102007.22
2022-08-05T18:03:11.193Z,102011.88
2022-08-05T18:06:15.540Z,102011.34
2022-08-05T18:09:20.007Z,102020.97
2022-08-05T18:12:24.711Z,102018.38
2022-08-05T18:15:38.516Z,102027.25
2022-08-05T18:18:48.037Z,102024.44
2022-08-05T18:22:08.547Z,102029.50
2022-08-05T18:25:13.675Z,102031.63
2022-08-05T18:28:21.808Z,102030.28
2022-08-05T18:31:33.835Z,102039.34
2022-08-05T18:34:42.869Z,102041.72
2022-08-05T18:37:46.748Z,102046.19
2022-08-05T18:41:53.784Z,102051.88
2022-08-05T18:44:15.365Z,102059.38
2022-08-05T18:47:38.776Z,102058.72
2022-08-05T18:52:02.739Z,102056.25
2022-08-05T18:54:26.311Z,102066.41
2022-08-05T18:57:43.184Z,102076.28
2022-08-05T19:00:53.993Z,102069.69
2022-08-05T19:03:57.778Z,102078.81
2022-08-05T19:07:02.919Z,102088.81
2022-08-05T19:10:11.800Z,102088.38
2022-08-05T19:13:16.149Z,102091.81
2022-08-05T19:16:25.481Z,102092.22
2022-08-05T19:19:33.807Z,102093.44
2022-08-05T19:22:39.856Z,102103.34
2022-08-05T19:25:43.801Z,102102.56
2022-08-05T19:28:48.147Z,102110.50
2022-08-05T19:31:52.108Z,102118.00
2022-08-05T19:34:55.964Z,102123.34
2022-08-05T19:38:06.726Z,102128.78
2022-08-05T19:41:12.348Z,102132.41
2022-08-05T19:44:16.578Z,102142.25
2022-08-05T19:47:22.170Z,102141.47
2022-08-05T19:50:27.383Z,102149.56
2022-08-05T19:54:04.022Z,102149.06
2022-08-05T19:56:56.860Z,102152.53
2022-08-05T20:00:04.548Z,102161.88
2022-08-05T20:03:11.107Z,102165.03
2022-08-05T20:06:16.025Z,102173.97
2022-08-05T20:09:55.180Z,102169.69
2022-08-05T20:12:58.221Z,102169.69
2022-08-05T20:16:01.920Z,102168.31
2022-08-05T20:19:07.969Z,102180.97
2022-08-05T20:22:11.705Z,102191.59
2022-08-05T20:25:16.823Z,102188.31
2022-08-05T20:28:20.515Z,102189.97
2022-08-05T20:31:42.233Z,102191.78
2022-08-05T20:34:52.084Z,102192.72
2022-08-05T20:38:06.014Z,102199.91
2022-08-05T20:41:12.666Z,102214.94
2022-08-05T20:44:30.203Z,102217.00
2022-08-05T20:47:34.644Z,102208.25
2022-08-05T20:50:45.432Z,102212.72
2022-08-05T20:53:55.238Z,102214.69
2022-08-05T20:57:03.517Z,102214.88
2022-08-05T21:00:20.979Z,102223.00
2022-08-05T21:03:34.669Z,102227.59
2022-08-05T21:06:45.751Z,102231.88
2022-08-05T21:09:53.535Z,102240.78
2022-08-05T21:13:11.077Z,102236.50
2022-08-05T21:16:18.491Z,102250.66
2022-08-05T21:19:23.514Z,102249.94
2022-08-05T21:22:27.487Z,102258.75
2022-08-05T21:25:34.033Z,102256.22
2022-08-05T21:28:40.918Z,102250.13
2022-08-05T21:31:51.991Z,102253.03
2022-08-05T21:35:08.887Z,102254.81
2022-08-05T21:38:20.253Z,102253.94
2022-08-05T21:41:24.013Z,102263.53
2022-08-05T21:44:29.122Z,102260.06
2022-08-05T21:47:56.802Z,102259.44
2022-08-05T21:50:57.338Z,102263.06
2022-08-05T21:54:03.833Z,102269.16
2022-08-05T21:57:30.864Z,102266.47
2022-08-05T22:00:33.276Z,102271.75
2022-08-05T22:03:49.007Z,102269.13
2022-08-05T22:06:57.244Z,102267.38
2022-08-05T22:10:01.202Z,102272.59
2022-08-05T22:13:09.172Z,102268.44
2022-08-05T22:16:41.640Z,102274.59
2022-08-05T22:20:01.964Z,102263.28
2022-08-05T22:24:00.983Z,102273.91
2022-08-05T22:27:16.515Z,102276.66
2022-08-05T22:30:21.034Z,102274.97
2022-08-05T22:33:56.630Z,102275.09
2022-08-05T22:36:51.539Z,102283.91
2022-08-05T22:39:55.690Z,102281.25
2022-08-05T22:43:00.229Z,102278.69
2022-08-05T22:46:12.137Z,102283.09
2022-08-05T22:50:21.666Z,102280.72
2022-08-05T22:52:53.361Z,102289.47
2022-08-05T22:55:59.346Z,102287.72
2022-08-05T22:59:42.496Z,102295.09
2022-08-05T23:02:29.202Z,102297.88
2022-08-05T23:05:36.180Z,102304.09
2022-08-05T23:08:39.983Z,102298.91
2022-08-05T23:11:46.695Z,102305.97
2022-08-05T23:14:53.987Z,102303.34
2022-08-05T23:18:00.434Z,102310.31
2022-08-05T23:21:10.088Z,102315.50
2022-08-05T23:24:14.057Z,102320.88
2022-08-05T23:27:20.126Z,102326.16
2022-08-05T23:30:29.057Z,102323.59
2022-08-05T23:34:05.218Z,102332.31
2022-08-05T23:36:59.903Z,102330.59
2022-08-05T23:40:07.548Z,102336.81
2022-08-05T23:43:25.173Z,102334.09
2022-08-05T23:46:37.434Z,102333.22
2022-08-05T23:49:43.238Z,102342.84
2022-08-05T23:52:51.712Z,102335.81
2022-08-05T23:55:57.619Z,102345.47
2022-08-05T23:59:03.102Z,102349.84
